Time;durP1;ratioP1;P1;durP2;ratioP2;P2;SDS_P1;SDS_P2;PMS_P1;PMS_P2;Temp;Humidity;BMP_temperature;BMP_pressure;BME280_temperature;BME280_humidity;BME280_pressure;Samples;Min_cycle;Max_cycle;Signal;HPM_P1;HPM_P2
2021/01/04 00:00:49;;;;;;;;;;;;;;;;;;5114131;28;963;-76
2021/01/04 00:03:40;;;;;;;;;;;;;;;;;;5114492;28;1210;-76
2021/01/04 00:06:17;;;;;;;;;;;;;;;;;;5106238;28;1332;-76
2021/01/04 00:08:55;;;;;;;;;;;;;;;;;;5114348;28;923;-76
2021/01/04 00:11:39;;;;;;;;;;;;;;;;;;5117472;28;1898;-76
2021/01/04 00:14:18;;;;;;;;;;;;;;;;;;5118560;28;824;-77
2021/01/04 00:16:48;;;;;;;;;;;;;;;;;;5118314;28;1501;-75
2021/01/04 00:19:19;;;;;;;;;;;;;;;;;;5118270;28;820;-76
2021/01/04 00:21:48;;;;;;;;;;;;;;;;;;5117865;28;1484;-76
2021/01/04 00:24:13;;;;;;;;;;;;;;;;;;5117049;28;1274;-76
2021/01/04 00:26:45;;;;;;;;;;;;;;;;;;5118134;28;956;-76
2021/01/04 00:29:11;;;;;;;;;;;;;;;;;;5118087;28;1955;-76
2021/01/04 00:31:42;;;;;;;;;;;;;;;;;;5116615;28;1492;-75
2021/01/04 00:34:13;;;;;;;;;;;;;;;;;;5118064;28;833;-76
2021/01/04 00:36:58;;;;;;;;;;;;;;;;;;5117863;28;868;-76
2021/01/04 00:39:23;;;;;;;;;;;;;;;;;;5117929;28;883;-76
2021/01/04 00:42:08;;;;;;;;;;;;;;;;;;5116108;28;1234;-77
2021/01/04 00:44:45;;;;;;;;;;;;;;;;;;5116284;28;1219;-77
2021/01/04 00:47:15;;;;;;;;;;;;;;;;;;5116683;28;1196;-77
2021/01/04 00:49:43;;;;;;;;;;;;;;;;;;5117662;28;1894;-77
2021/01/04 00:52:26;;;;;;;;;;;;;;;;;;5117596;28;868;-76
2021/01/04 00:54:52;;;;;;;;;;;;;;;;;;5117270;28;1309;-76
2021/01/04 00:57:33;;;;;;;;;;;;;;;;;;5117592;28;920;-77
2021/01/04 01:00:07;;;;;;;;;;;;;;;;;;5117264;28;896;-76
2021/01/04 01:02:49;;;;;;;;;;;;;;;;;;5117272;28;999;-77
2021/01/04 01:05:16;;;;;;;;;;;;;;;;;;5117216;28;1269;-76
2021/01/04 01:08:03;;;;;;;;;;;;;;;;;;5117224;28;960;-76
2021/01/04 01:10:29;;;;;;;;;;;;;;;;;;5117059;28;1901;-76
2021/01/04 01:12:54;;;;;;;;;;;;;;;;;;5117048;28;1495;-77
2021/01/04 01:15:21;;;;;;;;;;;;;;;;;;5115914;28;1297;-77
2021/01/04 01:17:52;;;;;;;;;;;;;;;;;;5117154;28;876;-77
2021/01/04 01:20:19;;;;;;;;;;;;;;;;;;5115775;28;1339;-76
2021/01/04 01:22:45;;;;;;;;;;;;;;;;;;5114257;28;1178;-76
2021/01/04 01:25:16;;;;;;;;;;;;;;;;;;5116961;28;1388;-76
2021/01/04 01:28:00;;;;;;;;;;;;;;;;;;5117026;28;769;-76
2021/01/04 01:30:25;;;;;;;;;;;;;;;;;;5116424;28;1890;-77
2021/01/04 01:33:04;;;;;;;;;;;;;;;;;;5116772;28;884;-77
2021/01/04 01:35:39;;;;;;;;;;;;;;;;;;5115674;28;1349;-76
2021/01/04 01:38:20;;;;;;;;;;;;;;;;;;5116632;28;966;-76
2021/01/04 01:40:54;;;;;;;;;;;;;;;;;;5115473;28;783;-76
2021/01/04 01:43:29;;;;;;;;;;;;;;;;;;5116700;28;816;-76
2021/01/04 01:46:14;;;;;;;;;;;;;;;;;;5115024;28;1447;-76
2021/01/04 01:48:58;;;;;;;;;;;;;;;;;;5094754;28;1465;-76
2021/01/04 01:51:40;;;;;;;;;;;;;;;;;;5116202;28;2004;-76
2021/01/04 01:54:44;;;;;;;;;;;;;;;;;;5116633;28;1342;-76
2021/01/04 01:57:09;;;;;;;;;;;;;;;;;;5073520;28;1378;-76
2021/01/04 01:59:34;;;;;;;;;;;;;;;;;;5073442;28;908;-75
2021/01/04 02:02:09;;;;;;;;;;;;;;;;;;5092905;28;987;-77
2021/01/04 02:04:38;;;;;;;;;;;;;;;;;;5116023;28;1380;-77
2021/01/04 02:07:06;;;;;;;;;;;;;;;;;;5114503;28;1428;-76
2021/01/04 02:09:40;;;;;;;;;;;;;;;;;;5114676;28;1893;-76
2021/01/04 02:12:22;;;;;;;;;;;;;;;;;;5115995;28;833;-76
2021/01/04 02:14:53;;;;;;;;;;;;;;;;;;5115917;28;1316;-76
2021/01/04 02:17:18;;;;;;;;;;;;;;;;;;5115997;28;885;-76
2021/01/04 02:19:56;;;;;;;;;;;;;;;;;;5115581;28;867;-76
2021/01/04 02:22:33;;;;;;;;;;;;;;;;;;5114745;28;955;-76
2021/01/04 02:24:58;;;;;;;;;;;;;;;;;;5114827;28;1431;-76
2021/01/04 02:27:35;;;;;;;;;;;;;;;;;;5116154;28;908;-76
2021/01/04 02:30:01;;;;;;;;;;;;;;;;;;5115958;28;1897;-77
2021/01/04 02:32:26;;;;;;;;;;;;;;;;;;5115843;28;927;-77
2021/01/04 02:34:54;;;;;;;;;;;;;;;;;;5114897;28;2459;-77
2021/01/04 02:37:20;;;;;;;;;;;;;;;;;;5115890;28;904;-76
2021/01/04 02:39:49;;;;;;;;;;;;;;;;;;5115920;28;904;-76
2021/01/04 02:42:18;;;;;;;;;;;;;;;;;;5116046;28;900;-76
2021/01/04 02:44:43;;;;;;;;;;;;;;;;;;5116360;28;1274;-78
2021/01/04 02:47:09;;;;;;;;;;;;;;;;;;5116103;28;816;-76
2021/01/04 02:49:52;;;;;;;;;;;;;;;;;;5115973;28;1885;-77
2021/01/04 02:52:24;;;;;;;;;;;;;;;;;;5114705;28;825;-76
2021/01/04 02:54:54;;;;;;;;;;;;;;;;;;5114728;28;1356;-75
2021/01/04 02:57:27;;;;;;;;;;;;;;;;;;5115595;28;883;-76
2021/01/04 02:59:56;;;;;;;;;;;;;;;;;;5115537;28;928;-76
2021/01/04 03:02:21;;;;;;;;;;;;;;;;;;5115677;28;856;-75
2021/01/04 03:04:47;;;;;;;;;;;;;;;;;;5115585;28;1356;-75
2021/01/04 03:07:21;;;;;;;;;;;;;;;;;;5115612;28;844;-75
2021/01/04 03:09:47;;;;;;;;;;;;;;;;;;5115142;28;1890;-75
2021/01/04 03:12:15;;;;;;;;;;;;;;;;;;5115469;28;1270;-75
2021/01/04 03:14:59;;;;;;;;;;;;;;;;;;5115400;28;1324;-76
2021/01/04 03:17:24;;;;;;;;;;;;;;;;;;5115559;28;828;-76
2021/01/04 03:19:52;;;;;;;;;;;;;;;;;;5115184;28;880;-75
2021/01/04 03:22:18;;;;;;;;;;;;;;;;;;5115460;28;847;-77
2021/01/04 03:24:47;;;;;;;;;;;;;;;;;;5115355;28;1285;-75
2021/01/04 03:27:15;;;;;;;;;;;;;;;;;;5114048;28;1217;-75
2021/01/04 03:29:40;;;;;;;;;;;;;;;;;;5113834;28;1902;-74
2021/01/04 03:32:06;;;;;;;;;;;;;;;;;;5115184;28;879;-76
2021/01/04 03:34:31;;;;;;;;;;;;;;;;;;5115126;28;1274;-77
2021/01/04 03:36:56;;;;;;;;;;;;;;;;;;5113833;28;829;-75
2021/01/04 03:39:28;;;;;;;;;;;;;;;;;;5115287;28;994;-77
2021/01/04 03:41:53;;;;;;;;;;;;;;;;;;5114808;28;896;-77
2021/01/04 03:44:18;;;;;;;;;;;;;;;;;;5114282;28;1257;-76
2021/01/04 03:46:45;;;;;;;;;;;;;;;;;;5113965;28;837;-76
2021/01/04 03:49:10;;;;;;;;;;;;;;;;;;5113581;28;1902;-76
2021/01/04 03:51:36;;;;;;;;;;;;;;;;;;5114835;28;873;-76
2021/01/04 03:54:01;;;;;;;;;;;;;;;;;;5115012;28;920;-75
2021/01/04 03:56:26;;;;;;;;;;;;;;;;;;5114817;28;1347;-74
2021/01/04 03:58:51;;;;;;;;;;;;;;;;;;5113714;28;1193;-75
2021/01/04 04:01:16;;;;;;;;;;;;;;;;;;5114861;28;986;-75
2021/01/04 04:03:43;;;;;;;;;;;;;;;;;;5114757;28;872;-75
2021/01/04 04:06:09;;;;;;;;;;;;;;;;;;5114781;28;1301;-75
2021/01/04 04:08:35;;;;;;;;;;;;;;;;;;5114696;28;844;-75
2021/01/04 04:11:00;;;;;;;;;;;;;;;;;;5113307;28;1963;-74
2021/01/04 04:13:25;;;;;;;;;;;;;;;;;;5114825;28;1089;-75
2021/01/04 04:15:50;;;;;;;;;;;;;;;;;;5114477;28;1313;-75
2021/01/04 04:18:16;;;;;;;;;;;;;;;;;;5113536;28;1322;-75
2021/01/04 04:20:41;;;;;;;;;;;;;;;;;;5114662;28;808;-75
2021/01/04 04:23:06;;;;;;;;;;;;;;;;;;5114709;28;947;-75
2021/01/04 04:25:31;;;;;;;;;;;;;;;;;;5114351;28;1380;-75
2021/01/04 04:27:57;;;;;;;;;;;;;;;;;;5114587;28;999;-75
2021/01/04 04:30:23;;;;;;;;;;;;;;;;;;5114441;28;1951;-75
2021/01/04 04:32:49;;;;;;;;;;;;;;;;;;5114606;28;1039;-75
2021/01/04 04:35:15;;;;;;;;;;;;;;;;;;5113276;28;1392;-75
2021/01/04 04:37:41;;;;;;;;;;;;;;;;;;5114585;28;812;-75
2021/01/04 04:40:07;;;;;;;;;;;;;;;;;;5114444;28;826;-75
2021/01/04 04:42:32;;;;;;;;;;;;;;;;;;5114741;28;923;-75
2021/01/04 04:45:00;;;;;;;;;;;;;;;;;;5114540;28;1316;-75
2021/01/04 04:47:44;;;;;;;;;;;;;;;;;;5114547;28;884;-74
2021/01/04 04:50:28;;;;;;;;;;;;;;;;;;5114237;28;1893;-75
2021/01/04 04:53:11;;;;;;;;;;;;;;;;;;5114298;28;959;-75
2021/01/04 04:55:50;;;;;;;;;;;;;;;;;;5114656;28;1289;-75
2021/01/04 04:58:22;;;;;;;;;;;;;;;;;;5116886;28;1698;-75
2021/01/04 05:01:07;;;;;;;;;;;;;;;;;;5117653;28;951;-75
2021/01/04 05:03:45;;;;;;;;;;;;;;;;;;5118134;28;991;-75
2021/01/04 05:06:19;;;;;;;;;;;;;;;;;;5117866;28;1318;-74
2021/01/04 05:09:02;;;;;;;;;;;;;;;;;;5117931;28;873;-75
2021/01/04 05:11:31;;;;;;;;;;;;;;;;;;5117352;28;1886;-75
2021/01/04 05:13:57;;;;;;;;;;;;;;;;;;5117940;28;932;-76
2021/01/04 05:16:35;;;;;;;;;;;;;;;;;;5117709;28;1340;-75
2021/01/04 05:19:19;;;;;;;;;;;;;;;;;;5116536;28;1388;-75
2021/01/04 05:21:47;;;;;;;;;;;;;;;;;;5117397;28;991;-75
2021/01/04 05:24:31;;;;;;;;;;;;;;;;;;5117579;28;903;-74
2021/01/04 05:27:19;;;;;;;;;;;;;;;;;;5116357;28;1712;-76
2021/01/04 05:30:02;;;;;;;;;;;;;;;;;;5115936;28;1881;-75
2021/01/04 05:32:37;;;;;;;;;;;;;;;;;;5117572;28;928;-77
2021/01/04 05:35:04;;;;;;;;;;;;;;;;;;5116102;28;1442;-77
2021/01/04 05:37:32;;;;;;;;;;;;;;;;;;5099122;28;960;-74
2021/01/04 05:40:00;;;;;;;;;;;;;;;;;;5117211;28;899;-73
2021/01/04 05:42:31;;;;;;;;;;;;;;;;;;5117156;28;959;-78
2021/01/04 05:45:09;;;;;;;;;;;;;;;;;;5117366;28;1346;-75
2021/01/04 05:47:53;;;;;;;;;;;;;;;;;;5116848;28;1274;-74
2021/01/04 05:50:24;;;;;;;;;;;;;;;;;;5116971;28;1897;-75
2021/01/04 05:52:51;;;;;;;;;;;;;;;;;;5116922;28;880;-76
2021/01/04 05:55:17;;;;;;;;;;;;;;;;;;5117199;28;1376;-76
2021/01/04 05:57:43;;;;;;;;;;;;;;;;;;5117005;28;1000;-73
2021/01/04 06:00:08;;;;;;;;;;;;;;;;;;5116560;28;896;-76
2021/01/04 06:02:34;;;;;;;;;;;;;;;;;;5115625;28;1298;-73
2021/01/04 06:05:13;;;;;;;;;;;;;;;;;;5116707;28;1308;-74
2021/01/04 06:07:40;;;;;;;;;;;;;;;;;;5115806;28;956;-77
2021/01/04 06:10:06;;;;;;;;;;;;;;;;;;5115184;28;1969;-74
2021/01/04 06:12:35;;;;;;;;;;;;;;;;;;5116652;28;1066;-76
2021/01/04 06:15:01;;;;;;;;;;;;;;;;;;5116298;28;1294;-77
2021/01/04 06:17:35;;;;;;;;;;;;;;;;;;5115185;28;814;-75
2021/01/04 06:20:09;;;;;;;;;;;;;;;;;;5116263;28;813;-77
2021/01/04 06:22:35;;;;;;;;;;;;;;;;;;5116392;28;1132;-74
2021/01/04 06:25:01;;;;;;;;;;;;;;;;;;5115388;28;1292;-76
2021/01/04 06:27:26;;;;;;;;;;;;;;;;;;5115049;28;1873;-77
2021/01/04 06:29:52;;;;;;;;;;;;;;;;;;5114832;28;1885;-75
2021/01/04 06:32:20;;;;;;;;;;;;;;;;;;5115048;28;1634;-76
2021/01/04 06:34:50;;;;;;;;;;;;;;;;;;5114961;28;1282;-74
2021/01/04 06:37:18;;;;;;;;;;;;;;;;;;5114842;28;1314;-75
2021/01/04 06:39:44;;;;;;;;;;;;;;;;;;5115809;28;832;-76
2021/01/04 06:42:21;;;;;;;;;;;;;;;;;;5116059;28;880;-75
2021/01/04 06:44:56;;;;;;;;;;;;;;;;;;5115892;28;1293;-76
2021/01/04 06:47:41;;;;;;;;;;;;;;;;;;5114612;28;1211;-73
2021/01/04 06:50:09;;;;;;;;;;;;;;;;;;5115276;28;1870;-77
2021/01/04 06:52:34;;;;;;;;;;;;;;;;;;5114876;28;1278;-75
2021/01/04 06:55:06;;;;;;;;;;;;;;;;;;5114650;28;1780;-75
2021/01/04 06:57:49;;;;;;;;;;;;;;;;;;5115832;28;895;-76
2021/01/04 07:00:24;;;;;;;;;;;;;;;;;;5114354;28;1386;-75
2021/01/04 07:03:21;;;;;;;;;;;;;;;;;;5115740;28;833;-74
2021/01/04 07:05:58;;;;;;;;;;;;;;;;;;5114464;28;1289;-77
2021/01/04 07:08:42;;;;;;;;;;;;;;;;;;5114274;28;1227;-75
2021/01/04 07:11:15;;;;;;;;;;;;;;;;;;5114168;28;1898;-76
2021/01/04 07:13:47;;;;;;;;;;;;;;;;;;5115431;28;919;-73
2021/01/04 07:16:12;;;;;;;;;;;;;;;;;;5115358;28;1415;-75
2021/01/04 07:18:55;;;;;;;;;;;;;;;;;;5115451;28;887;-75
2021/01/04 07:21:26;;;;;;;;;;;;;;;;;;5113973;28;1327;-76
2021/01/04 07:24:09;;;;;;;;;;;;;;;;;;5115560;28;821;-76
2021/01/04 07:26:50;;;;;;;;;;;;;;;;;;5115199;28;1439;-78
2021/01/04 07:29:34;;;;;;;;;;;;;;;;;;5113851;28;2706;-76
2021/01/04 07:32:11;;;;;;;;;;;;;;;;;;5115286;28;1118;-75
2021/01/04 07:34:39;;;;;;;;;;;;;;;;;;5115129;28;1266;-75
2021/01/04 07:37:07;;;;;;;;;;;;;;;;;;5113674;28;1403;-74
2021/01/04 07:39:35;;;;;;;;;;;;;;;;;;5114886;28;1023;-73
2021/01/04 07:42:15;;;;;;;;;;;;;;;;;;5115378;28;975;-74
2021/01/04 07:44:40;;;;;;;;;;;;;;;;;;5113866;28;1284;-76
2021/01/04 07:47:05;;;;;;;;;;;;;;;;;;5115114;28;821;-75
2021/01/04 07:49:54;;;;;;;;;;;;;;;;;;5113439;28;1947;-73
2021/01/04 07:52:22;;;;;;;;;;;;;;;;;;5095499;28;1341;-76
2021/01/04 07:55:17;;;;;;;;;;;;;;;;;;5114879;28;1367;-76
2021/01/04 07:58:01;;;;;;;;;;;;;;;;;;5113635;28;1275;-73
2021/01/04 08:00:45;;;;;;;;;;;;;;;;;;5113515;28;1229;-75
2021/01/04 08:03:17;;;;;;;;;;;;;;;;;;5113548;28;1218;-75
2021/01/04 08:05:52;;;;;;;;;;;;;;;;;;5114714;28;1278;-77
2021/01/04 08:08:17;;;;;;;;;;;;;;;;;;5114849;28;911;-74
2021/01/04 08:11:01;;;;;;;;;;;;;;;;;;5113407;28;1885;-75
2021/01/04 08:13:45;;;;;;;;;;;;;;;;;;5113509;28;959;-77
2021/01/04 08:16:14;;;;;;;;;;;;;;;;;;5114604;28;1313;-77
2021/01/04 08:18:41;;;;;;;;;;;;;;;;;;5114661;28;1011;-74
2021/01/04 08:21:25;;;;;;;;;;;;;;;;;;5113217;28;1041;-74
2021/01/04 08:23:53;;;;;;;;;;;;;;;;;;5114763;28;1018;-74
2021/01/04 08:26:21;;;;;;;;;;;;;;;;;;5114675;28;1396;-78
2021/01/04 08:29:01;;;;;;;;;;;;;;;;;;5113927;28;1531;-74
2021/01/04 08:31:29;;;;;;;;;;;;;;;;;;5115775;28;2001;-76
2021/01/04 08:33:58;;;;;;;;;;;;;;;;;;5118781;28;907;-74
2021/01/04 08:36:27;;;;;;;;;;;;;;;;;;5117136;28;1419;-74
2021/01/04 08:39:05;;;;;;;;;;;;;;;;;;5117267;28;1686;-75
2021/01/04 08:41:31;;;;;;;;;;;;;;;;;;5118350;28;816;-76
2021/01/04 08:43:56;;;;;;;;;;;;;;;;;;5118390;28;935;-75
2021/01/04 08:46:22;;;;;;;;;;;;;;;;;;5117114;28;1566;-75
2021/01/04 08:48:48;;;;;;;;;;;;;;;;;;5117075;28;1563;-72
2021/01/04 08:51:26;;;;;;;;;;;;;;;;;;5117923;28;1963;-75
2021/01/04 08:53:54;;;;;;;;;;;;;;;;;;5118211;28;833;-78
2021/01/04 08:56:28;;;;;;;;;;;;;;;;;;5116774;28;1297;-73
2021/01/04 08:59:04;;;;;;;;;;;;;;;;;;5118121;28;883;-74
2021/01/04 09:01:29;;;;;;;;;;;;;;;;;;5117070;28;1335;-75
2021/01/04 09:04:05;;;;;;;;;;;;;;;;;;5117868;28;884;-74
2021/01/04 09:06:36;;;;;;;;;;;;;;;;;;5116560;28;1337;-74
2021/01/04 09:09:10;;;;;;;;;;;;;;;;;;5117925;28;808;-77
2021/01/04 09:11:40;;;;;;;;;;;;;;;;;;5116325;28;1971;-76
2021/01/04 09:14:19;;;;;;;;;;;;;;;;;;5116400;28;1210;-75
2021/01/04 09:16:46;;;;;;;;;;;;;;;;;;5117936;28;805;-73
2021/01/04 09:19:21;;;;;;;;;;;;;;;;;;5116366;28;1511;-77
2021/01/04 09:21:46;;;;;;;;;;;;;;;;;;5116515;28;897;-74
2021/01/04 09:24:24;;;;;;;;;;;;;;;;;;5117592;28;880;-78
2021/01/04 09:26:54;;;;;;;;;;;;;;;;;;5117652;28;850;-73
2021/01/04 09:29:27;;;;;;;;;;;;;;;;;;5117519;28;841;-75
2021/01/04 09:31:55;;;;;;;;;;;;;;;;;;5117343;28;935;-75
2021/01/04 09:34:20;;;;;;;;;;;;;;;;;;5117278;28;1274;-75
2021/01/04 09:36:46;;;;;;;;;;;;;;;;;;5117618;28;805;-75
2021/01/04 09:39:13;;;;;;;;;;;;;;;;;;5117325;28;928;-75
2021/01/04 09:41:38;;;;;;;;;;;;;;;;;;5117069;28;856;-73
2021/01/04 09:44:05;;;;;;;;;;;;;;;;;;5115138;28;1367;-76
2021/01/04 09:46:39;;;;;;;;;;;;;;;;;;5115656;28;1459;-77
2021/01/04 09:49:11;;;;;;;;;;;;;;;;;;5117132;28;968;-78
2021/01/04 09:51:39;;;;;;;;;;;;;;;;;;5116904;28;1893;-75
2021/01/04 09:54:07;;;;;;;;;;;;;;;;;;5121612;27;1543;-74
2021/01/04 09:56:34;;;;;;;;;;;;;;;;;;5137368;27;1436;-77
2021/01/04 09:59:19;;;;;;;;;;;;;;;;;;5135961;27;1494;-75
2021/01/04 10:01:46;;;;;;;;;;;;;;;;;;5137567;27;813;-76
2021/01/04 10:04:12;;;;;;;;;;;;;;;;;;5136203;27;892;-74
2021/01/04 10:06:39;;;;;;;;;;;;;;;;;;5136038;27;1486;-74
2021/01/04 10:09:07;;;;;;;;;;;;;;;;;;5137316;27;948;-73
2021/01/04 10:11:32;;;;;;;;;;;;;;;;;;5136789;27;1898;-72
2021/01/04 10:14:05;;;;;;;;;;;;;;;;;;5137381;27;947;-74
2021/01/04 10:16:31;;;;;;;;;;;;;;;;;;5137196;27;1340;-73
2021/01/04 10:19:01;;;;;;;;;;;;;;;;;;5136591;27;923;-73
2021/01/04 10:21:29;;;;;;;;;;;;;;;;;;5136765;27;1022;-77
2021/01/04 10:24:00;;;;;;;;;;;;;;;;;;5136892;27;982;-75
2021/01/04 10:26:25;;;;;;;;;;;;;;;;;;5136977;27;1364;-73
2021/01/04 10:28:51;;;;;;;;;;;;;;;;;;5136908;27;848;-73
2021/01/04 10:31:25;;;;;;;;;;;;;;;;;;5136412;27;1902;-72
2021/01/04 10:34:01;;;;;;;;;;;;;;;;;;5136836;27;966;-76
2021/01/04 10:36:26;;;;;;;;;;;;;;;;;;5136633;27;1289;-76
2021/01/04 10:39:15;;;;;;;;;;;;;;;;;;5135728;27;1042;-76
2021/01/04 10:41:40;;;;;;;;;;;;;;;;;;5130641;27;1220;-73
2021/01/04 10:44:07;;;;;;;;;;;;;;;;;;5136383;27;907;-74
2021/01/04 10:46:40;;;;;;;;;;;;;;;;;;5135099;27;1532;-74
2021/01/04 10:49:08;;;;;;;;;;;;;;;;;;5136642;27;1003;-72
2021/01/04 10:51:48;;;;;;;;;;;;;;;;;;5136098;27;1889;-74
2021/01/04 10:54:18;;;;;;;;;;;;;;;;;;5135783;27;1375;-72
2021/01/04 10:56:56;;;;;;;;;;;;;;;;;;5136445;27;899;-73
2021/01/04 10:59:27;;;;;;;;;;;;;;;;;;5136375;27;824;-73
2021/01/04 11:01:55;;;;;;;;;;;;;;;;;;5136108;27;903;-75
2021/01/04 11:04:20;;;;;;;;;;;;;;;;;;5134795;27;1430;-76
2021/01/04 11:06:47;;;;;;;;;;;;;;;;;;5134650;27;1218;-76
2021/01/04 11:09:27;;;;;;;;;;;;;;;;;;5136284;27;801;-73
2021/01/04 11:12:05;;;;;;;;;;;;;;;;;;5135908;27;820;-76
2021/01/04 11:14:31;;;;;;;;;;;;;;;;;;5134514;27;1435;-74
2021/01/04 11:17:10;;;;;;;;;;;;;;;;;;5136192;27;832;-74
2021/01/04 11:19:36;;;;;;;;;;;;;;;;;;5134516;27;852;-75
2021/01/04 11:22:09;;;;;;;;;;;;;;;;;;5134686;27;1002;-74
2021/01/04 11:24:35;;;;;;;;;;;;;;;;;;5134602;27;1431;-73
2021/01/04 11:27:00;;;;;;;;;;;;;;;;;;5135686;27;1061;-74
2021/01/04 11:29:26;;;;;;;;;;;;;;;;;;5135783;27;1897;-75
2021/01/04 11:31:51;;;;;;;;;;;;;;;;;;5135768;27;1389;-74
2021/01/04 11:34:16;;;;;;;;;;;;;;;;;;5135687;27;1324;-73
2021/01/04 11:36:41;;;;;;;;;;;;;;;;;;5135495;27;947;-74
2021/01/04 11:39:07;;;;;;;;;;;;;;;;;;5134361;27;1208;-72
2021/01/04 11:41:33;;;;;;;;;;;;;;;;;;5135590;27;1083;-72
2021/01/04 11:43:58;;;;;;;;;;;;;;;;;;5135771;27;875;-72
2021/01/04 11:46:23;;;;;;;;;;;;;;;;;;5135033;27;1611;-79
2021/01/04 11:48:48;;;;;;;;;;;;;;;;;;5134589;27;1353;-78
2021/01/04 11:51:20;;;;;;;;;;;;;;;;;;5134181;28;1890;-77
2021/01/04 11:53:46;;;;;;;;;;;;;;;;;;5135772;28;1898;-77
2021/01/04 11:56:11;;;;;;;;;;;;;;;;;;5136751;28;1364;-76
2021/01/04 11:58:39;;;;;;;;;;;;;;;;;;5137657;28;1600;-77
2021/01/04 12:01:04;;;;;;;;;;;;;;;;;;5136588;28;1414;-77
2021/01/04 12:03:30;;;;;;;;;;;;;;;;;;5136729;28;1666;-79
2021/01/04 12:05:55;;;;;;;;;;;;;;;;;;5139105;27;1367;-76
2021/01/04 12:08:20;;;;;;;;;;;;;;;;;;5141842;27;1313;-77
2021/01/04 12:10:45;;;;;;;;;;;;;;;;;;5144270;27;1905;-77
2021/01/04 12:13:11;;;;;;;;;;;;;;;;;;5144205;27;978;-77
2021/01/04 12:15:36;;;;;;;;;;;;;;;;;;5143266;27;1277;-77
2021/01/04 12:18:02;;;;;;;;;;;;;;;;;;5146502;27;872;-77
2021/01/04 12:20:28;;;;;;;;;;;;;;;;;;5145912;27;1383;-77
2021/01/04 12:22:54;;;;;;;;;;;;;;;;;;5146318;27;879;-77
2021/01/04 12:25:19;;;;;;;;;;;;;;;;;;5145062;27;1333;-77
2021/01/04 12:27:44;;;;;;;;;;;;;;;;;;5146818;27;1082;-77
2021/01/04 12:30:10;;;;;;;;;;;;;;;;;;5141543;27;1881;-78
2021/01/04 12:32:35;;;;;;;;;;;;;;;;;;5141907;27;1003;-80
2021/01/04 12:35:00;;;;;;;;;;;;;;;;;;5140118;27;1348;-80
2021/01/04 12:37:26;;;;;;;;;;;;;;;;;;5141517;27;927;-77
2021/01/04 12:39:51;;;;;;;;;;;;;;;;;;5138535;27;1319;-76
2021/01/04 12:42:16;;;;;;;;;;;;;;;;;;5139818;27;987;-77
2021/01/04 12:44:42;;;;;;;;;;;;;;;;;;5138828;27;1281;-77
2021/01/04 12:47:10;;;;;;;;;;;;;;;;;;5138642;27;865;-77
2021/01/04 12:49:35;;;;;;;;;;;;;;;;;;5137918;27;1898;-77
2021/01/04 12:52:00;;;;;;;;;;;;;;;;;;5138655;27;1312;-76
2021/01/04 12:54:28;;;;;;;;;;;;;;;;;;5138161;27;2003;-78
2021/01/04 12:56:56;;;;;;;;;;;;;;;;;;5138521;27;879;-77
2021/01/04 12:59:24;;;;;;;;;;;;;;;;;;5137156;27;1275;-76
2021/01/04 13:01:52;;;;;;;;;;;;;;;;;;5137988;27;873;-76
2021/01/04 13:04:18;;;;;;;;;;;;;;;;;;5138251;27;1321;-77
2021/01/04 13:06:44;;;;;;;;;;;;;;;;;;5138407;27;899;-76
2021/01/04 13:09:09;;;;;;;;;;;;;;;;;;5137214;27;1336;-77
2021/01/04 13:11:34;;;;;;;;;;;;;;;;;;5136545;27;2031;-77
2021/01/04 13:13:59;;;;;;;;;;;;;;;;;;5138241;27;1010;-76
2021/01/04 13:16:25;;;;;;;;;;;;;;;;;;5136781;27;1321;-77
2021/01/04 13:18:50;;;;;;;;;;;;;;;;;;5138103;27;957;-77
2021/01/04 13:21:16;;;;;;;;;;;;;;;;;;5136238;27;1712;-76
2021/01/04 13:23:41;;;;;;;;;;;;;;;;;;5137934;27;821;-76
2021/01/04 13:26:07;;;;;;;;;;;;;;;;;;5137974;27;1376;-76
2021/01/04 13:28:32;;;;;;;;;;;;;;;;;;5137437;27;975;-78
2021/01/04 13:30:57;;;;;;;;;;;;;;;;;;5138004;27;1886;-78
2021/01/04 13:33:23;;;;;;;;;;;;;;;;;;5138459;27;942;-77
2021/01/04 13:35:48;;;;;;;;;;;;;;;;;;5138421;27;1277;-77
2021/01/04 13:38:15;;;;;;;;;;;;;;;;;;5138899;27;1108;-77
2021/01/04 13:40:40;;;;;;;;;;;;;;;;;;5139328;27;879;-77
2021/01/04 13:43:06;;;;;;;;;;;;;;;;;;5139558;27;825;-77
2021/01/04 13:45:31;;;;;;;;;;;;;;;;;;5138287;27;1395;-77
2021/01/04 13:47:58;;;;;;;;;;;;;;;;;;5137721;27;833;-77
2021/01/04 13:50:23;;;;;;;;;;;;;;;;;;5136366;27;1952;-78
2021/01/04 13:52:48;;;;;;;;;;;;;;;;;;5136899;27;1411;-77
2021/01/04 13:55:14;;;;;;;;;;;;;;;;;;5136956;27;1393;-76
2021/01/04 13:57:39;;;;;;;;;;;;;;;;;;5138851;27;1211;-79
2021/01/04 14:00:05;;;;;;;;;;;;;;;;;;5138604;27;805;-79
2021/01/04 14:02:30;;;;;;;;;;;;;;;;;;5138848;27;1310;-79
2021/01/04 14:04:55;;;;;;;;;;;;;;;;;;5138569;27;1458;-78
2021/01/04 14:07:21;;;;;;;;;;;;;;;;;;5137057;27;1278;-81
2021/01/04 14:09:50;;;;;;;;;;;;;;;;;;5135416;27;1886;-77
2021/01/04 14:12:15;;;;;;;;;;;;;;;;;;5133690;27;1733;-77
2021/01/04 14:14:41;;;;;;;;;;;;;;;;;;5135949;27;1487;-80
2021/01/04 14:17:06;;;;;;;;;;;;;;;;;;5136637;27;1577;-77
2021/01/04 14:19:32;;;;;;;;;;;;;;;;;;5132851;27;1492;-78
2021/01/04 14:22:00;;;;;;;;;;;;;;;;;;5137077;27;824;-78
2021/01/04 14:24:26;;;;;;;;;;;;;;;;;;5137447;27;1329;-79
2021/01/04 14:26:51;;;;;;;;;;;;;;;;;;5136930;27;1652;-78
2021/01/04 14:29:16;;;;;;;;;;;;;;;;;;5135430;27;1376;-78
2021/01/04 14:31:47;;;;;;;;;;;;;;;;;;5136389;27;1901;-79
2021/01/04 14:34:14;;;;;;;;;;;;;;;;;;5135206;27;1329;-81
2021/01/04 14:36:40;;;;;;;;;;;;;;;;;;5135371;27;1468;-80
2021/01/04 14:39:06;;;;;;;;;;;;;;;;;;5137184;27;867;-77
2021/01/04 14:41:31;;;;;;;;;;;;;;;;;;5135987;27;757;-79
2021/01/04 14:43:57;;;;;;;;;;;;;;;;;;5136116;27;876;-78
2021/01/04 14:46:23;;;;;;;;;;;;;;;;;;5138001;27;1723;-78
2021/01/04 14:48:48;;;;;;;;;;;;;;;;;;5137892;27;904;-78
2021/01/04 14:51:15;;;;;;;;;;;;;;;;;;5135968;27;1901;-77
2021/01/04 14:53:41;;;;;;;;;;;;;;;;;;5135150;27;1371;-79
2021/01/04 14:56:07;;;;;;;;;;;;;;;;;;5135774;27;1444;-76
2021/01/04 14:58:32;;;;;;;;;;;;;;;;;;5134789;27;1220;-79
2021/01/04 15:00:57;;;;;;;;;;;;;;;;;;5135849;27;1231;-77
2021/01/04 15:03:23;;;;;;;;;;;;;;;;;;5135113;27;1591;-76
2021/01/04 15:05:48;;;;;;;;;;;;;;;;;;5135765;27;1313;-79
2021/01/04 15:08:13;;;;;;;;;;;;;;;;;;5135908;27;896;-80
2021/01/04 15:10:38;;;;;;;;;;;;;;;;;;5136175;27;1901;-83
2021/01/04 15:13:03;;;;;;;;;;;;;;;;;;5136361;27;813;-81
2021/01/04 15:15:29;;;;;;;;;;;;;;;;;;5135839;27;1329;-79
2021/01/04 15:17:54;;;;;;;;;;;;;;;;;;5136088;27;907;-81
2021/01/04 15:20:19;;;;;;;;;;;;;;;;;;5135933;27;963;-78
2021/01/04 15:22:44;;;;;;;;;;;;;;;;;;5135406;27;1376;-80
2021/01/04 15:25:10;;;;;;;;;;;;;;;;;;5136755;27;1301;-78
2021/01/04 15:27:35;;;;;;;;;;;;;;;;;;5135581;27;1197;-80
2021/01/04 15:30:00;;;;;;;;;;;;;;;;;;5134527;27;1964;-82
2021/01/04 15:32:26;;;;;;;;;;;;;;;;;;5136035;27;967;-79
2021/01/04 15:34:51;;;;;;;;;;;;;;;;;;5134305;27;1478;-80
2021/01/04 15:37:17;;;;;;;;;;;;;;;;;;5134665;27;864;-79
2021/01/04 15:39:42;;;;;;;;;;;;;;;;;;5135268;27;1397;-77
2021/01/04 15:42:08;;;;;;;;;;;;;;;;;;5135171;27;1003;-82
2021/01/04 15:44:33;;;;;;;;;;;;;;;;;;5134264;27;1552;-80
2021/01/04 15:46:59;;;;;;;;;;;;;;;;;;5135944;27;881;-78
2021/01/04 15:49:25;;;;;;;;;;;;;;;;;;5134956;27;1561;-80
2021/01/04 15:51:51;;;;;;;;;;;;;;;;;;5135426;27;1942;-79
2021/01/04 15:54:18;;;;;;;;;;;;;;;;;;5135625;28;1304;-81
2021/01/04 15:56:54;;;;;;;;;;;;;;;;;;5135195;28;1320;-78
2021/01/04 15:59:19;;;;;;;;;;;;;;;;;;5136417;27;849;-82
2021/01/04 16:01:45;;;;;;;;;;;;;;;;;;5136437;28;808;-80
2021/01/04 16:04:12;;;;;;;;;;;;;;;;;;5136650;28;1034;-81
2021/01/04 16:06:37;;;;;;;;;;;;;;;;;;5134820;28;1583;-80
2021/01/04 16:09:03;;;;;;;;;;;;;;;;;;5136712;27;732;-78
2021/01/04 16:11:29;;;;;;;;;;;;;;;;;;5134662;28;1889;-79
2021/01/04 16:13:54;;;;;;;;;;;;;;;;;;5134807;28;1257;-80
2021/01/04 16:16:21;;;;;;;;;;;;;;;;;;5134280;28;1471;-82
2021/01/04 16:18:47;;;;;;;;;;;;;;;;;;5134673;28;1549;-80
2021/01/04 16:21:12;;;;;;;;;;;;;;;;;;5134740;28;1229;-83
2021/01/04 16:23:38;;;;;;;;;;;;;;;;;;5127200;27;1918;-82
2021/01/04 16:26:03;;;;;;;;;;;;;;;;;;5115377;28;1407;-81
2021/01/04 16:28:28;;;;;;;;;;;;;;;;;;5116033;28;1366;-85
2021/01/04 16:30:56;;;;;;;;;;;;;;;;;;5116069;28;1972;-81
2021/01/04 16:33:21;;;;;;;;;;;;;;;;;;5117849;28;844;-80
2021/01/04 16:35:46;;;;;;;;;;;;;;;;;;5115701;28;1413;-80
2021/01/04 16:38:12;;;;;;;;;;;;;;;;;;5115265;28;1050;-79
2021/01/04 16:40:38;;;;;;;;;;;;;;;;;;5114297;28;1322;-80
2021/01/04 16:43:03;;;;;;;;;;;;;;;;;;5114999;28;904;-79
2021/01/04 16:45:29;;;;;;;;;;;;;;;;;;5114726;28;1306;-78
2021/01/04 16:47:54;;;;;;;;;;;;;;;;;;5113826;28;1197;-78
2021/01/04 16:50:19;;;;;;;;;;;;;;;;;;5114558;28;1897;-79
2021/01/04 16:52:44;;;;;;;;;;;;;;;;;;5116744;28;1297;-79
2021/01/04 16:55:10;;;;;;;;;;;;;;;;;;5120273;28;1313;-80
2021/01/04 16:57:35;;;;;;;;;;;;;;;;;;5119487;28;846;-80
2021/01/04 17:00:00;;;;;;;;;;;;;;;;;;5120350;28;1081;-77
2021/01/04 17:02:26;;;;;;;;;;;;;;;;;;5116846;27;1519;-78
2021/01/04 17:04:51;;;;;;;;;;;;;;;;;;5119784;28;1305;-78
2021/01/04 17:07:16;;;;;;;;;;;;;;;;;;5119123;28;2407;-78
2021/01/04 17:09:42;;;;;;;;;;;;;;;;;;5118713;28;1977;-80
2021/01/04 17:12:08;;;;;;;;;;;;;;;;;;5119531;28;848;-80
2021/01/04 17:14:34;;;;;;;;;;;;;;;;;;5117646;28;1375;-81
2021/01/04 17:17:00;;;;;;;;;;;;;;;;;;5117396;28;1614;-80
2021/01/04 17:19:25;;;;;;;;;;;;;;;;;;5118071;28;1247;-80
2021/01/04 17:21:52;;;;;;;;;;;;;;;;;;5119248;28;832;-79
2021/01/04 17:24:18;;;;;;;;;;;;;;;;;;5118246;28;1500;-79
2021/01/04 17:26:44;;;;;;;;;;;;;;;;;;5120897;28;829;-79